Time;durP1;ratioP1;P1;durP2;ratioP2;P2;SDS_P1;SDS_P2;PMS_P1;PMS_P2;Temp;Humidity;BMP_temperature;BMP_pressure;BME280_temperature;BME280_humidity;BME280_pressure;Samples;Min_cycle;Max_cycle;Signal;HPM_P1;HPM_P2
2023/06/15 00:00:06;;;;;;;11.40;8.60;;;;;;;14.55;88.81;100738.95;106491;1260;99162;-80
2023/06/15 00:03:16;;;;;;;9.30;8.30;;;;;;;14.52;89.11;100734.19;105890;1260;101232;-79
2023/06/15 00:06:02;;;;;;;12.40;8.60;;;;;;;14.50;89.33;100728.14;105964;1254;98051;-80
2023/06/15 00:08:47;;;;;;;9.80;8.30;;;;;;;14.48;89.02;100728.42;106403;1255;96603;-81
2023/06/15 00:11:33;;;;;;;11.00;9.80;;;;;;;14.47;89.02;100725.57;106320;1256;99991;-80
2023/06/15 00:14:18;;;;;;;11.00;7.90;;;;;;;14.44;89.02;100723.99;106214;1256;99067;-79
2023/06/15 00:17:04;;;;;;;8.50;7.40;;;;;;;14.39;89.23;100720.52;105762;1256;97727;-80
2023/06/15 00:19:50;;;;;;;9.50;7.70;;;;;;;14.35;88.90;100718.24;105656;1256;97042;-79
2023/06/15 00:22:41;;;;;;;9.20;7.80;;;;;;;14.31;88.88;100716.87;105864;1257;96527;-79
2023/06/15 00:25:26;;;;;;;12.00;8.20;;;;;;;14.26;88.97;100716.56;106069;1259;101277;-79
2023/06/15 00:28:12;;;;;;;9.30;7.40;;;;;;;14.22;89.37;100711.04;106118;1259;99092;-80
2023/06/15 00:30:57;;;;;;;11.40;9.00;;;;;;;14.20;89.45;100716.11;106097;1256;98964;-82
2023/06/15 00:33:43;;;;;;;10.30;9.20;;;;;;;14.19;89.70;100715.93;106351;1256;96982;-80
2023/06/15 00:36:28;;;;;;;16.10;10.40;;;;;;;14.19;90.07;100719.13;106587;1254;96619;-81
2023/06/15 00:39:14;;;;;;;13.70;11.20;;;;;;;14.19;90.18;100717.46;106438;1256;101230;-81
2023/06/15 00:41:59;;;;;;;14.20;11.00;;;;;;;14.20;90.54;100719.05;106502;1257;99100;-83
2023/06/15 00:44:46;;;;;;;10.20;9.10;;;;;;;14.21;90.60;100718.17;106430;1254;98988;-80
2023/06/15 00:47:38;;;;;;;12.20;10.00;;;;;;;14.21;90.55;100714.02;106268;1256;96589;-79
2023/06/15 00:50:25;;;;;;;12.70;9.60;;;;;;;14.23;90.85;100716.14;106015;1259;96622;-81
2023/06/15 00:53:11;;;;;;;10.20;9.10;;;;;;;14.24;90.93;100712.69;106406;1257;99973;-80
2023/06/15 00:55:56;;;;;;;10.70;9.60;;;;;;;14.23;90.87;100707.98;106464;1254;107727;-79
2023/06/15 00:58:44;;;;;;;10.90;9.80;;;;;;;14.22;91.00;100704.73;106426;1257;97709;-80
2023/06/15 01:01:29;;;;;;;11.60;9.70;;;;;;;14.22;91.34;100698.60;106255;1260;96578;-81
2023/06/15 01:04:14;;;;;;;10.50;9.50;;;;;;;14.23;91.17;100699.05;106441;1256;97288;-80
2023/06/15 01:07:02;;;;;;;12.00;10.10;;;;;;;14.22;91.32;100700.71;106007;1256;108787;-81
2023/06/15 01:09:48;;;;;;;13.60;10.30;;;;;;;14.21;91.03;100697.15;106647;1256;99749;-80
2023/06/15 01:12:40;;;;;;;9.40;8.40;;;;;;;14.21;91.21;100693.42;106474;1255;97901;-80
2023/06/15 01:15:26;;;;;;;11.40;9.70;;;;;;;14.18;91.08;100693.09;106316;1256;96599;-79
2023/06/15 01:18:20;;;;;;;10.60;9.50;;;;;;;14.16;91.28;100691.72;106200;1254;97134;-81
2023/06/15 01:21:07;;;;;;;11.20;9.30;;;;;;;14.17;91.42;100688.42;105727;1259;101275;-80
2023/06/15 01:24:06;;;;;;;10.60;9.00;;;;;;;14.18;91.47;100686.95;106054;1254;99071;-80
2023/06/15 01:26:53;;;;;;;10.20;8.90;;;;;;;14.19;91.80;100688.25;106455;1256;97888;-80
2023/06/15 01:29:41;;;;;;;11.20;9.20;;;;;;;14.19;91.54;100690.08;106343;1259;96535;-81
2023/06/15 01:32:27;;;;;;;10.80;9.50;;;;;;;14.18;91.69;100692.30;106509;1256;97058;-81
2023/06/15 01:35:13;;;;;;;10.60;8.40;;;;;;;14.18;92.07;100695.09;106566;1254;100922;-80
2023/06/15 01:37:58;;;;;;;9.80;8.60;;;;;;;14.18;91.96;100697.95;106488;1257;100336;-80
2023/06/15 01:40:49;;;;;;;11.10;9.90;;;;;;;14.20;92.29;100702.62;106313;1260;98960;-80
2023/06/15 01:43:37;;;;;;;11.50;9.10;;;;;;;14.23;92.22;100708.89;106399;1260;96602;-81
2023/06/15 01:46:23;;;;;;;13.60;9.90;;;;;;;14.24;92.42;100705.07;106475;1260;96613;-81
2023/06/15 01:49:09;;;;;;;15.80;10.10;;;;;;;14.23;92.57;100702.80;106491;1255;99997;-81
2023/06/15 01:51:55;;;;;;;11.80;9.20;;;;;;;14.24;92.76;100702.08;106424;1258;100340;-79
2023/06/15 01:54:41;;;;;;;11.80;9.30;;;;;;;14.25;92.89;100706.44;106407;1259;97714;-78
2023/06/15 01:57:26;;;;;;;11.90;9.60;;;;;;;14.26;93.09;100706.65;105998;1254;96627;-80
2023/06/15 02:00:12;;;;;;;11.20;9.40;;;;;;;14.27;93.03;100704.58;106006;1254;97038;-80
2023/06/15 02:03:01;;;;;;;11.10;9.90;;;;;;;14.29;93.03;100705.80;106041;1257;109607;-81
2023/06/15 02:05:47;;;;;;;13.50;8.70;;;;;;;14.28;92.73;100705.50;106475;1259;99957;-80
2023/06/15 02:08:36;;;;;;;11.70;10.30;;;;;;;14.27;92.63;100704.98;106399;1260;97559;-81
2023/06/15 02:11:22;;;;;;;11.90;10.60;;;;;;;14.26;92.81;100702.05;106433;1254;96509;-80
2023/06/15 02:14:09;;;;;;;10.90;9.60;;;;;;;14.25;92.75;100703.38;106465;1256;96691;-81
2023/06/15 02:16:56;;;;;;;11.70;10.50;;;;;;;14.25;92.60;100705.94;106360;1257;99985;-81
2023/06/15 02:19:44;;;;;;;10.70;9.60;;;;;;;14.23;92.79;100709.04;106455;1257;99060;-80
2023/06/15 02:22:30;;;;;;;11.30;9.50;;;;;;;14.21;92.88;100706.81;106207;1257;97769;-80
2023/06/15 02:25:15;;;;;;;13.90;12.10;;;;;;;14.19;93.12;100705.48;105740;1256;97258;-81
2023/06/15 02:28:01;;;;;;;12.50;11.10;;;;;;;14.18;93.19;100702.59;106539;1256;97042;-81
2023/06/15 02:30:48;;;;;;;17.70;11.70;;;;;;;14.19;93.55;100703.20;106436;1256;100003;-81
2023/06/15 02:33:34;;;;;;;13.00;11.60;;;;;;;14.19;93.68;100703.83;106417;1259;99087;-79
2023/06/15 02:36:19;;;;;;;16.50;10.50;;;;;;;14.21;93.95;100700.60;106557;1257;99483;-80
2023/06/15 02:39:06;;;;;;;15.80;10.90;;;;;;;14.22;94.07;100705.77;106430;1255;97117;-80
2023/06/15 02:41:52;;;;;;;13.90;9.90;;;;;;;14.24;94.05;100710.70;105944;1259;96888;-79
2023/06/15 02:44:38;;;;;;;15.70;9.90;;;;;;;14.26;94.10;100707.98;105715;1260;99957;-80
2023/06/15 02:47:24;;;;;;;13.70;10.20;;;;;;;14.27;93.80;100709.96;106245;1256;99780;-79
2023/06/15 02:50:10;;;;;;;16.80;10.20;;;;;;;14.27;93.92;100707.98;105771;1254;99344;-79
2023/06/15 02:53:00;;;;;;;14.90;10.60;;;;;;;14.25;93.44;100705.86;105862;1257;97315;-80
2023/06/15 02:55:46;;;;;;;11.20;10.00;;;;;;;14.24;93.68;100708.88;106489;1256;97171;-81
2023/06/15 02:58:34;;;;;;;12.50;10.10;;;;;;;14.25;93.71;100707.97;106487;1256;99984;-80
2023/06/15 03:01:38;;;;;;;11.30;10.10;;;;;;;14.24;93.77;100711.02;106340;1256;99067;-80
2023/06/15 03:04:24;;;;;;;14.60;10.70;;;;;;;14.24;93.52;100711.98;106158;1259;99478;-81
2023/06/15 03:07:16;;;;;;;11.50;10.10;;;;;;;14.25;93.64;100716.73;106014;1256;96692;-80
2023/06/15 03:10:21;;;;;;;14.80;10.70;;;;;;;14.25;93.75;100720.54;106505;1258;96638;-80
2023/06/15 03:13:06;;;;;;;11.00;9.90;;;;;;;14.22;93.67;100721.41;106520;1257;99980;-82
2023/06/15 03:15:52;;;;;;;12.40;10.20;;;;;;;14.19;93.95;100722.56;106501;1254;99761;-81
2023/06/15 03:18:38;;;;;;;13.70;10.10;;;;;;;14.19;94.13;100725.83;106595;1256;99201;-81
2023/06/15 03:21:24;;;;;;;13.00;11.10;;;;;;;14.20;94.56;100723.48;106482;1254;96622;-80
2023/06/15 03:24:10;;;;;;;14.30;10.50;;;;;;;14.22;94.64;100723.48;106468;1259;96538;-81
2023/06/15 03:27:01;;;;;;;13.70;11.20;;;;;;;14.24;94.68;100722.23;106592;1259;101255;-80
2023/06/15 03:29:49;;;;;;;13.80;10.50;;;;;;;14.25;94.73;100719.79;106381;1255;99133;-81
2023/06/15 03:32:35;;;;;;;15.40;10.60;;;;;;;14.25;94.93;100716.55;106383;1257;97717;-83
2023/06/15 03:35:21;;;;;;;12.40;10.00;;;;;;;14.25;95.00;100713.27;106480;1254;96622;-80
2023/06/15 03:38:08;;;;;;;14.10;12.00;;;;;;;14.25;95.14;100707.56;106467;1257;96973;-80
2023/06/15 03:40:54;;;;;;;13.10;10.60;;;;;;;14.25;95.26;100702.74;106637;1256;100520;-80
2023/06/15 03:43:41;;;;;;;13.40;10.90;;;;;;;14.26;95.59;100706.52;106478;1256;102501;-81
2023/06/15 03:46:27;;;;;;;17.00;10.90;;;;;;;14.28;95.84;100704.59;106323;1263;98075;-81
2023/06/15 03:49:14;;;;;;;13.10;11.30;;;;;;;14.31;95.70;100703.73;106476;1256;96533;-80
2023/06/15 03:52:00;;;;;;;12.80;11.40;;;;;;;14.33;96.00;100703.56;106651;1255;97142;-81
2023/06/15 03:54:46;;;;;;;17.00;12.60;;;;;;;14.37;96.35;100704.73;106347;1256;101245;-79
2023/06/15 03:57:32;;;;;;;13.90;12.20;;;;;;;14.40;96.38;100699.41;105940;1258;99126;-80
2023/06/15 04:00:18;;;;;;;15.10;13.60;;;;;;;14.44;96.73;100690.54;106128;1259;98501;-80
2023/06/15 04:03:04;;;;;;;14.10;12.60;;;;;;;14.48;96.83;100691.95;106199;1256;96567;-80
2023/06/15 04:05:50;;;;;;;16.70;13.40;;;;;;;14.52;97.04;100690.36;106095;1257;97099;-81
2023/06/15 04:08:36;;;;;;;17.30;13.90;;;;;;;14.57;97.26;100690.05;106205;1257;99961;-79
2023/06/15 04:11:21;;;;;;;16.30;14.30;;;;;;;14.62;97.84;100691.05;106173;1256;100390;-81
2023/06/15 04:14:08;;;;;;;17.00;14.20;;;;;;;14.66;98.04;100690.82;106300;1259;98281;-82
2023/06/15 04:16:54;;;;;;;17.30;14.50;;;;;;;14.71;98.10;100692.55;106322;1260;96556;-78
2023/06/15 04:19:40;;;;;;;15.80;14.10;;;;;;;14.75;98.19;100690.02;106286;1259;96591;-81
2023/06/15 04:22:27;;;;;;;17.50;14.90;;;;;;;14.77;98.35;100684.99;106209;1257;101261;-85
2023/06/15 04:25:13;;;;;;;16.60;14.10;;;;;;;14.80;98.74;100681.98;106325;1254;99182;-79
2023/06/15 04:27:58;;;;;;;16.00;14.30;;;;;;;14.86;99.26;100681.83;105691;1259;98611;-78
2023/06/15 04:30:52;;;;;;;19.00;14.20;;;;;;;14.93;99.06;100677.64;106331;1259;96587;-82
2023/06/15 04:33:42;;;;;;;18.40;14.70;;;;;;;15.01;99.18;100676.61;106289;1256;97180;-82
2023/06/15 04:36:31;;;;;;;16.60;14.20;;;;;;;15.09;99.13;100675.74;106309;1259;100653;-80
2023/06/15 04:39:17;;;;;;;19.00;13.80;;;;;;;15.16;99.32;100675.95;106469;1254;99058;-80
2023/06/15 04:42:04;;;;;;;16.60;14.90;;;;;;;15.24;99.52;100675.17;106159;1256;97769;-83
2023/06/15 04:44:51;;;;;;;15.40;13.50;;;;;;;15.30;99.73;100678.05;105995;1262;96613;-85
2023/06/15 04:47:36;;;;;;;17.70;14.00;;;;;;;15.34;99.41;100677.49;106112;1261;97132;-79
2023/06/15 04:50:22;;;;;;;16.10;13.70;;;;;;;15.38;99.25;100680.88;105699;1254;100001;-80
2023/06/15 04:53:08;;;;;;;17.30;14.70;;;;;;;15.41;99.34;100683.61;106318;1256;100430;-81
2023/06/15 04:55:54;;;;;;;16.40;14.50;;;;;;;15.40;99.48;100689.09;106081;1256;98992;-81
2023/06/15 04:58:39;;;;;;;16.50;14.10;;;;;;;15.41;99.67;100695.83;106272;1257;97199;-79
2023/06/15 05:01:25;;;;;;;15.90;14.00;;;;;;;15.40;99.89;100700.39;106228;1254;96714;-81
2023/06/15 05:04:10;;;;;;;17.20;15.30;;;;;;;15.38;100.00;100704.97;106126;1260;101358;-79
2023/06/15 05:06:56;;;;;;;17.30;14.90;;;;;;;15.37;100.00;100704.92;105478;1259;100333;-80
2023/06/15 05:09:42;;;;;;;16.20;14.50;;;;;;;15.37;100.00;100709.29;105315;1259;98959;-78
2023/06/15 05:12:31;;;;;;;16.90;15.00;;;;;;;15.36;100.00;100706.60;105625;1258;96573;-79
2023/06/15 05:15:17;;;;;;;18.50;14.20;;;;;;;15.37;100.00;100705.94;105614;1257;97124;-79
2023/06/15 05:18:02;;;;;;;18.40;14.40;;;;;;;15.40;100.00;100709.52;105633;1259;100253;-80
2023/06/15 05:20:50;;;;;;;17.40;14.60;;;;;;;15.46;100.00;100713.30;105573;1259;99081;-80
2023/06/15 05:23:36;;;;;;;19.80;14.90;;;;;;;15.49;100.00;100716.70;105648;1257;97787;-79
2023/06/15 05:26:22;;;;;;;17.70;14.90;;;;;;;15.52;100.00;100714.33;105623;1259;96621;-79
2023/06/15 05:29:09;;;;;;;19.70;15.30;;;;;;;15.55;100.00;100716.58;105644;1259;97154;-79
2023/06/15 05:31:56;;;;;;;17.50;15.20;;;;;;;15.59;100.00;100720.09;105557;1259;99995;-79
2023/06/15 05:34:42;;;;;;;18.50;15.60;;;;;;;15.65;100.00;100722.80;106089;1256;101346;-79
2023/06/15 05:37:28;;;;;;;20.80;16.70;;;;;;;15.70;100.00;100726.38;105620;1261;97760;-79
2023/06/15 05:40:14;;;;;;;20.80;16.00;;;;;;;15.77;100.00;100724.89;105639;1256;96686;-79
2023/06/15 05:43:00;;;;;;;18.80;16.60;;;;;;;15.86;100.00;100724.33;105645;1257;97225;-80
2023/06/15 05:45:47;;;;;;;18.40;15.80;;;;;;;16.00;100.00;100729.30;105617;1261;100036;-79
2023/06/15 05:48:33;;;;;;;21.30;15.50;;;;;;;16.13;100.00;100732.45;105654;1259;108202;-80
2023/06/15 05:51:19;;;;;;;21.00;16.50;;;;;;;16.26;100.00;100730.94;105607;1259;99308;-79
2023/06/15 05:54:04;;;;;;;18.70;16.20;;;;;;;16.45;100.00;100727.77;105595;1261;97055;-79
2023/06/15 05:56:50;;;;;;;18.70;14.70;;;;;;;16.64;99.92;100730.50;105463;1261;97067;-79
2023/06/15 05:59:36;;;;;;;16.40;14.20;;;;;;;16.77;99.74;100725.23;105665;1259;100005;-78
2023/06/15 06:02:23;;;;;;;17.50;14.30;;;;;;;16.92;99.38;100725.38;105549;1259;99106;-80
2023/06/15 06:05:11;;;;;;;16.00;13.40;;;;;;;17.02;98.97;100730.64;105437;1259;97977;-80
2023/06/15 06:07:57;;;;;;;17.90;14.00;;;;;;;17.09;98.38;100731.39;105554;1259;96603;-80
2023/06/15 06:10:42;;;;;;;14.80;13.00;;;;;;;17.13;97.59;100732.73;106164;1259;97151;-80
2023/06/15 06:13:41;;;;;;;13.90;12.20;;;;;;;17.18;97.25;100731.83;106184;1257;101201;-79
2023/06/15 06:16:27;;;;;;;13.00;11.60;;;;;;;17.25;97.20;100729.23;105618;1257;99154;-79
2023/06/15 06:19:13;;;;;;;12.60;9.40;;;;;;;17.32;96.67;100733.37;105616;1257;97772;-80
2023/06/15 06:21:59;;;;;;;12.20;11.10;;;;;;;17.36;95.46;100732.41;105865;1256;96586;-80
2023/06/15 06:24:44;;;;;;;13.30;10.00;;;;;;;17.37;94.26;100736.08;106090;1257;96508;-78
2023/06/15 06:27:30;;;;;;;10.80;9.50;;;;;;;17.38;93.44;100735.54;106137;1257;100110;-80
2023/06/15 06:30:16;;;;;;;11.70;10.30;;;;;;;17.40;93.27;100732.04;106122;1259;100314;-81
2023/06/15 06:33:03;;;;;;;12.00;10.50;;;;;;;17.44;93.21;100729.55;106104;1259;98408;-80
2023/06/15 06:35:48;;;;;;;13.10;10.40;;;;;;;17.49;93.67;100730.16;106147;1255;96545;-81
2023/06/15 06:38:35;;;;;;;14.00;11.80;;;;;;;17.53;93.96;100732.56;106085;1259;96607;-79
2023/06/15 06:41:21;;;;;;;11.50;10.20;;;;;;;17.60;93.59;100735.52;106108;1255;99976;-80
2023/06/15 06:44:07;;;;;;;10.80;9.20;;;;;;;17.65;92.42;100736.59;106133;1257;99100;-81
2023/06/15 06:46:52;;;;;;;15.00;12.50;;;;;;;17.71;93.31;100736.80;106148;1256;98944;-80
2023/06/15 06:49:37;;;;;;;13.10;10.80;;;;;;;17.80;93.47;100735.70;106107;1259;96594;-80
2023/06/15 06:52:23;;;;;;;11.50;10.40;;;;;;;17.87;93.04;100735.90;106240;1257;97032;-81
2023/06/15 06:55:09;;;;;;;14.10;10.60;;;;;;;17.89;92.42;100734.27;106192;1257;100016;-81
2023/06/15 06:57:54;;;;;;;16.60;12.20;;;;;;;17.88;91.35;100734.59;106292;1259;99119;-83
2023/06/15 07:00:41;;;;;;;11.20;9.90;;;;;;;17.88;90.70;100732.59;106174;1260;97708;-80
2023/06/15 07:03:27;;;;;;;11.60;10.40;;;;;;;17.93;90.71;100733.30;106285;1254;96764;-80
2023/06/15 07:06:12;;;;;;;13.00;11.70;;;;;;;18.00;91.23;100730.98;106254;1257;97122;-80
2023/06/15 07:08:58;;;;;;;13.00;10.80;;;;;;;18.15;91.50;100730.45;106125;1256;100265;-80
2023/06/15 07:11:44;;;;;;;14.20;11.10;;;;;;;18.34;91.09;100729.05;106219;1259;99174;-80
2023/06/15 07:14:29;;;;;;;13.10;9.30;;;;;;;18.50;89.78;100726.85;106178;1257;97477;-79
2023/06/15 07:17:15;;;;;;;11.50;9.20;;;;;;;18.66;89.35;100721.85;106195;1259;96626;-80
2023/06/15 07:20:01;;;;;;;11.00;8.60;;;;;;;18.78;88.37;100721.21;105915;1259;98362;-79
2023/06/15 07:22:46;;;;;;;9.80;8.70;;;;;;;18.83;87.67;100717.80;105839;1257;101085;-81
2023/06/15 07:25:31;;;;;;;9.80;7.80;;;;;;;18.85;87.09;100716.65;106509;1257;100298;-80
2023/06/15 07:28:17;;;;;;;12.40;8.60;;;;;;;18.90;86.47;100717.64;106142;1257;98200;-80
2023/06/15 07:31:03;;;;;;;9.10;7.60;;;;;;;18.92;85.21;100721.91;106277;1259;96580;-81
2023/06/15 07:33:49;;;;;;;7.90;7.20;;;;;;;18.97;85.80;100721.22;106567;1259;96580;-80
2023/06/15 07:36:35;;;;;;;10.90;7.20;;;;;;;19.01;85.36;100716.20;105731;1257;99965;-80
2023/06/15 07:39:20;;;;;;;9.90;7.80;;;;;;;19.03;84.72;100719.06;105777;1257;100796;-80
2023/06/15 07:42:06;;;;;;;8.50;7.10;;;;;;;19.04;84.59;100716.74;105802;1257;98973;-80
2023/06/15 07:44:52;;;;;;;7.10;6.20;;;;;;;19.03;83.58;100716.88;105705;1257;96613;-81
2023/06/15 07:47:38;;;;;;;6.70;6.00;;;;;;;19.00;83.20;100718.95;105735;1259;97230;-79
2023/06/15 07:50:26;;;;;;;6.90;6.20;;;;;;;19.03;83.58;100715.63;105702;1257;110903;-79
2023/06/15 07:53:12;;;;;;;6.80;6.10;;;;;;;19.06;82.22;100715.96;105693;1259;100491;-79
2023/06/15 07:55:58;;;;;;;7.00;5.40;;;;;;;19.05;81.84;100716.17;105664;1259;97741;-80
2023/06/15 07:58:43;;;;;;;8.30;6.10;;;;;;;19.08;82.13;100716.17;105752;1257;96592;-80
2023/06/15 08:01:29;;;;;;;10.80;8.30;;;;;;;19.12;82.15;100715.57;106343;1259;96572;-80
2023/06/15 08:04:15;;;;;;;8.60;7.40;;;;;;;19.16;82.70;100716.46;106334;1257;100487;-80
2023/06/15 08:07:00;;;;;;;10.90;6.50;;;;;;;19.21;82.45;100715.60;106369;1257;99053;-80
2023/06/15 08:09:46;;;;;;;6.90;6.30;;;;;;;19.28;82.21;100716.92;106216;1257;97822;-81
2023/06/15 08:12:31;;;;;;;8.80;6.30;;;;;;;19.43;82.43;100719.64;106351;1259;97499;-81
2023/06/15 08:15:17;;;;;;;7.80;5.80;;;;;;;19.56;81.33;100719.19;106381;1259;96690;-80
2023/06/15 08:18:02;;;;;;;10.10;6.50;;;;;;;19.58;80.05;100716.13;106182;1257;99986;-81
2023/06/15 08:20:48;;;;;;;8.90;6.30;;;;;;;19.59;80.24;100712.69;106341;1260;99072;-81
2023/06/15 08:23:34;;;;;;;6.80;5.90;;;;;;;19.62;79.73;100715.46;106191;1256;99429;-79
2023/06/15 08:26:20;;;;;;;10.10;8.60;;;;;;;19.62;79.59;100716.42;106216;1260;96706;-81
2023/06/15 08:29:07;;;;;;;10.70;8.60;;;;;;;19.59;79.70;100717.45;106246;1259;99188;-81
2023/06/15 08:31:52;;;;;;;8.80;7.90;;;;;;;19.60;80.42;100717.05;106225;1257;100170;-80
2023/06/15 08:34:38;;;;;;;10.20;7.40;;;;;;;19.66;80.22;100715.80;106293;1259;99692;-82
2023/06/15 08:37:23;;;;;;;9.00;7.60;;;;;;;19.68;80.13;100715.75;106305;1259;97710;-80
2023/06/15 08:40:10;;;;;;;11.60;7.50;;;;;;;19.68;79.31;100718.00;106153;1259;97836;-80
2023/06/15 08:42:58;;;;;;;8.70;7.40;;;;;;;19.69;79.97;100722.00;106095;1257;97135;-79
2023/06/15 08:45:48;;;;;;;9.80;8.10;;;;;;;19.72;79.82;100721.58;105781;1256;101251;-80
2023/06/15 08:48:36;;;;;;;8.70;6.90;;;;;;;19.77;79.76;100721.12;106245;1259;99064;-81
2023/06/15 08:51:22;;;;;;;8.50;6.70;;;;;;;19.81;79.74;100719.63;106392;1259;97705;-81
2023/06/15 08:54:09;;;;;;;8.60;6.90;;;;;;;19.87;79.06;100722.05;106296;1257;96531;-81
2023/06/15 08:56:55;;;;;;;8.40;7.40;;;;;;;19.94;78.36;100716.92;106299;1261;96547;-80
2023/06/15 08:59:41;;;;;;;8.30;7.40;;;;;;;20.02;79.43;100718.09;106410;1256;101101;-81
2023/06/15 09:02:29;;;;;;;12.20;6.90;;;;;;;20.13;78.47;100714.11;106330;1259;108974;-81
2023/06/15 09:05:15;;;;;;;10.50;7.40;;;;;;;20.29;79.28;100712.38;106260;1259;97713;-82
2023/06/15 09:08:01;;;;;;;9.40;8.10;;;;;;;20.52;79.73;100715.58;106119;1257;96626;-80
2023/06/15 09:10:46;;;;;;;10.10;7.10;;;;;;;20.64;78.36;100714.95;106111;1260;96690;-82
2023/06/15 09:13:35;;;;;;;8.20;7.20;;;;;;;20.76;78.46;100716.98;106921;1259;100978;-82
2023/06/15 09:16:21;;;;;;;8.20;7.40;;;;;;;20.88;77.84;100717.75;106257;1260;99982;-82
2023/06/15 09:19:11;;;;;;;11.20;8.00;;;;;;;20.94;76.28;100715.31;106215;1256;97810;-81
2023/06/15 09:21:58;;;;;;;10.60;6.50;;;;;;;20.89;74.59;100718.08;106140;1257;96702;-81
2023/06/15 09:24:45;;;;;;;8.30;7.00;;;;;;;20.84;74.24;100718.33;106291;1259;96557;-82
2023/06/15 09:27:30;;;;;;;8.50;5.90;;;;;;;20.78;73.67;100717.05;106166;1259;100039;-80
2023/06/15 09:30:17;;;;;;;8.40;6.40;;;;;;;20.74;73.63;100716.73;106215;1255;100374;-81
2023/06/15 09:33:14;;;;;;;8.70;7.50;;;;;;;20.70;73.44;100714.12;106324;1259;98968;-83
2023/06/15 09:36:03;;;;;;;9.10;7.80;;;;;;;20.64;73.96;100716.21;106270;1257;97561;-83
2023/06/15 09:38:54;;;;;;;13.60;10.10;;;;;;;20.60;74.42;100715.88;106109;1259;97811;-81
2023/06/15 09:41:56;;;;;;;14.30;11.10;;;;;;;20.47;75.07;100717.57;106227;1259;99970;-82
2023/06/15 09:44:43;;;;;;;12.70;11.30;;;;;;;20.46;75.42;100718.91;106274;1257;100314;-83
2023/06/15 09:47:30;;;;;;;12.90;10.70;;;;;;;20.51;75.79;100716.15;106129;1256;99008;-80
2023/06/15 09:50:16;;;;;;;11.80;9.30;;;;;;;20.59;75.62;100714.82;106229;1259;96627;-81
2023/06/15 09:53:02;;;;;;;12.90;10.70;;;;;;;20.59;74.91;100712.86;106275;1257;96438;-81
2023/06/15 09:55:48;;;;;;;13.40;11.30;;;;;;;20.62;75.25;100714.77;106352;1260;100635;-84
2023/06/15 09:58:34;;;;;;;13.50;9.90;;;;;;;20.70;75.37;100714.88;106163;1259;99055;-81
2023/06/15 10:01:24;;;;;;;10.90;9.10;;;;;;;20.81;74.93;100714.98;106095;1255;98373;-79
2023/06/15 10:04:09;;;;;;;10.20;9.10;;;;;;;20.89;74.60;100714.42;106254;1259;95806;-81
2023/06/15 10:07:00;;;;;;;10.00;8.90;;;;;;;20.91;73.69;100710.92;106113;1259;97437;-81
2023/06/15 10:09:47;;;;;;;;;;;;;;;20.90;73.34;100710.20;106211;1257;100021;-81
2023/06/15 10:12:33;;;;;;;10.70;8.90;;;;;;;20.87;73.47;100719.09;106316;1257;100327;-81
2023/06/15 10:15:20;;;;;;;10.20;8.50;;;;;;;20.87;73.03;100713.91;106175;1259;97721;-82
2023/06/15 10:18:08;;;;;;;11.60;8.40;;;;;;;20.97;73.00;100710.18;106256;1262;96626;-82
2023/06/15 10:20:54;;;;;;;9.60;8.60;;;;;;;21.13;72.79;100705.41;106257;1257;96530;-82
2023/06/15 10:23:41;;;;;;;8.00;7.10;;;;;;;21.25;71.37;100705.84;106325;1258;101257;-81
2023/06/15 10:26:28;;;;;;;8.80;7.90;;;;;;;21.19;70.45;100702.93;106254;1259;100381;-80
2023/06/15 10:29:31;;;;;;;9.60;8.60;;;;;;;21.14;70.90;100706.69;106156;1262;98659;-80
2023/06/15 10:32:33;;;;;;;9.40;8.00;;;;;;;21.09;70.70;100708.96;106207;1257;96683;-81
2023/06/15 10:35:29;;;;;;;10.20;8.80;;;;;;;21.04;70.69;100703.66;106208;1255;97614;-81
2023/06/15 10:38:34;;;;;;;10.60;7.60;;;;;;;21.03;71.28;100707.73;106154;1257;100112;-82
2023/06/15 10:41:20;;;;;;;14.00;9.00;;;;;;;21.05;71.17;100710.10;106180;1262;99235;-81
2023/06/15 10:44:05;;;;;;;12.70;7.90;;;;;;;21.05;71.32;100710.05;106132;1260;98811;-80
2023/06/15 10:47:04;;;;;;;10.90;8.00;;;;;;;21.04;70.68;100713.01;106131;1260;96670;-81
2023/06/15 10:49:52;;;;;;;12.50;9.00;;;;;;;20.95;70.11;100712.34;106165;1257;96916;-83
2023/06/15 10:52:37;;;;;;;9.70;8.50;;;;;;;20.81;70.29;100713.84;106279;1259;101293;-82
2023/06/15 10:55:23;;;;;;;12.80;10.40;;;;;;;20.70;71.33;100711.88;106200;1259;99058;-79
2023/06/15 10:58:16;;;;;;;12.10;9.90;;;;;;;20.59;72.01;100712.75;106208;1260;97722;-82
2023/06/15 11:01:08;;;;;;;11.20;10.10;;;;;;;20.47;71.99;100711.25;106199;1255;97857;-80
2023/06/15 11:03:55;;;;;;;11.40;9.70;;;;;;;20.39;72.58;100710.09;106263;1257;97477;-82
2023/06/15 11:06:41;;;;;;;12.20;10.90;;;;;;;20.34;72.99;100705.66;106130;1260;99880;-84
2023/06/15 11:09:31;;;;;;;9.50;8.60;;;;;;;20.36;73.12;100703.18;106159;1260;99075;-82
2023/06/15 11:12:35;;;;;;;12.50;9.40;;;;;;;20.38;73.33;100704.80;106308;1256;97747;-83
2023/06/15 11:15:20;;;;;;;10.90;9.90;;;;;;;20.39;73.58;100701.60;106171;1260;96696;-82
2023/06/15 11:18:14;;;;;;;13.60;10.00;;;;;;;20.40;72.84;100703.96;106117;1260;96726;-83
2023/06/15 11:21:01;;;;;;;11.40;9.80;;;;;;;20.40;72.08;100703.73;106248;1257;101253;-81
2023/06/15 11:23:55;;;;;;;12.90;9.80;;;;;;;20.40;71.94;100698.73;106224;1258;99113;-81
2023/06/15 11:26:42;;;;;;;10.70;9.70;;;;;;;20.45;72.60;100695.88;106186;1259;97753;-82
2023/06/15 11:29:33;;;;;;;9.70;8.70;;;;;;;20.54;72.39;100695.80;106190;1260;96526;-80
2023/06/15 11:32:24;;;;;;;;;;;;;;;20.66;72.74;100696.36;106234;1259;97100;-83
2023/06/15 11:35:10;;;;;;;9.90;8.90;;;;;;;20.73;72.76;100690.42;106253;1259;101489;-83
2023/06/15 11:37:58;;;;;;;12.20;8.10;;;;;;;20.79;72.13;100687.00;106197;1259;99745;-80
2023/06/15 11:40:46;;;;;;;8.60;7.80;;;;;;;20.85;71.50;100685.83;106231;1255;97963;-81
2023/06/15 11:43:48;;;;;;;12.50;8.50;;;;;;;20.93;71.86;100684.85;106172;1262;97476;-82
2023/06/15 11:46:34;;;;;;;15.10;6.00;;;;;;;21.10;71.86;100688.20;106432;1258;96546;-83
2023/06/15 11:49:19;;;;;;;4.10;3.70;;;;;;;21.23;70.06;100689.84;106552;1256;100708;-82
2023/06/15 11:52:05;;;;;;;5.70;3.30;;;;;;;21.33;69.20;100689.91;106266;1257;99144;-82
2023/06/15 11:54:51;;;;;;;3.10;2.80;;;;;;;21.50;68.30;100686.88;106496;1257;97775;-82
2023/06/15 11:57:38;;;;;;;5.60;2.90;;;;;;;21.64;67.85;100684.52;106465;1260;96530;-83
2023/06/15 12:00:24;;;;;;;3.10;2.70;;;;;;;21.71;66.75;100682.91;106329;1259;96804;-83
2023/06/15 12:03:11;;;;;;;7.60;6.00;;;;;;;21.71;66.03;100684.05;106341;1259;100012;-83
2023/06/15 12:05:57;;;;;;;2.80;2.30;;;;;;;21.77;65.51;100681.61;106301;1257;99118;-83
2023/06/15 12:08:50;;;;;;;2.20;2.00;;;;;;;21.79;64.64;100680.65;106112;1257;99045;-83
2023/06/15 12:11:45;;;;;;;4.00;2.50;;;;;;;21.77;64.10;100675.02;107215;1251;97173;31
2023/06/15 12:14:31;;;;;;;2.10;1.90;;;;;;;21.83;64.81;100673.45;106259;1259;97035;-83
2023/06/15 12:17:33;;;;;;;4.10;2.20;;;;;;;21.95;64.63;100675.38;107062;1253;99981;31
2023/06/15 12:20:19;;;;;;;3.30;2.10;;;;;;;22.14;64.15;100672.15;106072;1263;99691;-81
2023/06/15 12:23:05;;;;;;;2.60;1.90;;;;;;;22.32;63.30;100672.50;105971;1260;98840;-82
2023/06/15 12:25:55;;;;;;;2.50;2.30;;;;;;;22.49;63.01;100671.20;105894;1266;97189;-81
2023/06/15 12:28:41;;;;;;;2.20;2.00;;;;;;;22.65;61.93;100671.61;105885;1261;97163;-82
2023/06/15 12:31:33;;;;;;;2.20;1.90;;;;;;;22.75;60.65;100666.38;105802;1264;100041;-82
2023/06/15 12:34:24;;;;;;;2.00;1.70;;;;;;;22.88;60.03;100657.70;105711;1261;100391;-81
2023/06/15 12:37:10;;;;;;;4.80;1.70;;;;;;;23.04;59.85;100654.49;105804;1265;97727;-82